Time;durP1;ratioP1;P1;durP2;ratioP2;P2;SDS_P1;SDS_P2;PMS_P1;PMS_P2;Temp;Humidity;BMP_temperature;BMP_pressure;BME280_temperature;BME280_humidity;BME280_pressure;Samples;Min_cycle;Max_cycle;Signal;HPM_P1;HPM_P2
2023/09/27 00:00:13;;;;;;;16.95;3.38;;;14.70;99.90;;;;;;4855392;29;20515;-78
2023/09/27 00:02:39;;;;;;;13.25;3.15;;;14.70;99.90;;;;;;4852446;29;20125;-79
2023/09/27 00:05:06;;;;;;;12.20;2.92;;;14.70;99.90;;;;;;4856821;29;20109;-79
2023/09/27 00:07:36;;;;;;;12.52;2.63;;;14.70;99.90;;;;;;4850200;29;20093;-80
2023/09/27 00:10:06;;;;;;;9.73;2.50;;;14.70;99.90;;;;;;4865548;29;20108;-79
2023/09/27 00:12:32;;;;;;;13.02;2.40;;;14.70;99.90;;;;;;4868690;29;20049;-79
2023/09/27 00:15:00;;;;;;;12.30;2.55;;;14.60;99.90;;;;;;4852526;29;20045;-79
2023/09/27 00:17:26;;;;;;;13.38;2.88;;;14.70;99.90;;;;;;4850095;29;20026;-79
2023/09/27 00:19:51;;;;;;;8.45;2.42;;;14.80;99.90;;;;;;4849474;29;20064;-79
2023/09/27 00:22:17;;;;;;;13.68;2.60;;;14.90;99.90;;;;;;4849159;29;20117;-79
2023/09/27 00:24:42;;;;;;;12.13;2.70;;;14.90;99.90;;;;;;4847104;29;20352;-78
2023/09/27 00:27:10;;;;;;;12.82;2.80;;;14.90;99.90;;;;;;4862790;29;20807;-79
2023/09/27 00:29:36;;;;;;;10.27;2.47;;;14.90;99.90;;;;;;4866339;29;20021;-80
2023/09/27 00:32:02;;;;;;;14.35;3.78;;;14.90;99.90;;;;;;4867483;29;20041;-77
2023/09/27 00:34:27;;;;;;;14.48;2.97;;;14.90;99.90;;;;;;4868281;29;20089;-79
2023/09/27 00:36:53;;;;;;;10.45;2.03;;;14.90;99.90;;;;;;4867742;29;20037;-77
2023/09/27 00:39:19;;;;;;;8.38;2.20;;;14.90;99.90;;;;;;4865982;29;20554;-78
2023/09/27 00:41:44;;;;;;;8.85;2.55;;;14.90;99.90;;;;;;4867166;29;20088;-78
2023/09/27 00:44:10;;;;;;;10.40;2.10;;;14.80;99.90;;;;;;4866509;29;20108;-78
2023/09/27 00:46:36;;;;;;;10.75;2.72;;;14.80;99.90;;;;;;4865576;29;20048;-78
2023/09/27 00:49:02;;;;;;;7.97;2.05;;;14.70;99.90;;;;;;4867579;29;20096;-78
2023/09/27 00:51:29;;;;;;;11.57;2.70;;;14.70;99.90;;;;;;4867263;29;20053;-78
2023/09/27 00:53:56;;;;;;;14.35;2.67;;;14.70;99.90;;;;;;4861601;29;20037;-78
2023/09/27 00:56:22;;;;;;;12.88;3.00;;;14.70;99.90;;;;;;4848605;29;20041;-78
2023/09/27 00:58:48;;;;;;;7.38;2.30;;;14.60;99.90;;;;;;4851042;29;20032;-78
2023/09/27 01:01:15;;;;;;;7.88;2.40;;;14.60;99.90;;;;;;4879625;29;20034;-78
2023/09/27 01:03:41;;;;;;;11.80;2.85;;;14.60;99.90;;;;;;4865826;29;20513;-78
2023/09/27 01:06:08;;;;;;;16.20;2.70;;;14.70;99.90;;;;;;4859006;29;20080;-78
2023/09/27 01:08:34;;;;;;;10.02;2.45;;;14.60;99.90;;;;;;4850448;29;20029;-78
2023/09/27 01:11:01;;;;;;;12.23;2.72;;;14.70;99.90;;;;;;4864876;29;20037;-77
2023/09/27 01:13:27;;;;;;;8.32;2.33;;;14.70;99.90;;;;;;4869654;29;20420;-78
2023/09/27 01:15:52;;;;;;;13.30;2.63;;;14.70;99.90;;;;;;4870637;29;20037;-78
2023/09/27 01:18:18;;;;;;;11.95;2.80;;;14.70;99.90;;;;;;4869245;29;20793;-78
2023/09/27 01:20:43;;;;;;;7.13;2.40;;;14.60;99.90;;;;;;4870438;29;20041;-78
2023/09/27 01:23:09;;;;;;;12.00;2.22;;;14.60;99.90;;;;;;4870231;29;20041;-78
2023/09/27 01:25:36;;;;;;;12.70;2.10;;;14.60;99.90;;;;;;4869355;29;20143;-77
2023/09/27 01:28:04;;;;;;;7.95;2.40;;;14.60;99.90;;;;;;4869858;29;20451;-78
2023/09/27 01:30:33;;;;;;;8.52;2.38;;;14.60;99.90;;;;;;4869680;29;20036;-78
2023/09/27 01:33:07;;;;;;;8.18;2.20;;;14.50;99.90;;;;;;4861075;29;20057;-78
2023/09/27 01:35:34;;;;;;;11.15;2.38;;;14.50;99.90;;;;;;4849130;29;20093;-78
2023/09/27 01:38:04;;;;;;;12.07;2.53;;;14.40;99.90;;;;;;4849352;29;20147;-79
2023/09/27 01:40:30;;;;;;;11.45;2.75;;;14.40;99.90;;;;;;4851052;29;20021;-78
2023/09/27 01:43:00;;;;;;;7.15;2.35;;;14.40;99.90;;;;;;4851333;29;20049;-77
2023/09/27 01:45:29;;;;;;;19.50;3.67;;;14.40;99.90;;;;;;4852154;29;20094;-77
2023/09/27 01:47:55;;;;;;;15.50;3.38;;;14.40;99.90;;;;;;4867870;29;20031;-79
2023/09/27 01:50:24;;;;;;;13.32;3.78;;;14.40;99.90;;;;;;4866882;29;20041;-78
2023/09/27 01:52:53;;;;;;;9.35;2.75;;;14.40;99.90;;;;;;4857717;29;20036;-77
2023/09/27 01:55:18;;;;;;;16.05;3.20;;;14.50;99.90;;;;;;4851421;29;20061;-78
2023/09/27 01:57:47;;;;;;;15.57;3.53;;;14.40;99.90;;;;;;4848232;29;20041;-78
2023/09/27 02:00:18;;;;;;;14.98;3.47;;;14.50;99.90;;;;;;4850386;29;20550;-78
2023/09/27 02:02:47;;;;;;;11.82;3.05;;;14.50;99.90;;;;;;4850778;29;20071;-78
2023/09/27 02:05:12;;;;;;;11.88;2.92;;;14.60;99.90;;;;;;4850712;29;20120;-77
2023/09/27 02:07:39;;;;;;;14.23;3.08;;;14.70;99.90;;;;;;4855414;29;20104;-78
2023/09/27 02:10:08;;;;;;;11.55;2.97;;;14.70;99.90;;;;;;4866692;29;20052;-77
2023/09/27 02:12:34;;;;;;;11.68;2.80;;;14.70;99.90;;;;;;4868525;29;20037;-78
2023/09/27 02:15:00;;;;;;;10.70;3.17;;;14.60;99.90;;;;;;4868872;29;20024;-77
2023/09/27 02:17:26;;;;;;;13.73;3.15;;;14.60;99.90;;;;;;4869163;29;20055;-78
2023/09/27 02:19:51;;;;;;;12.57;2.78;;;14.60;99.90;;;;;;4868346;29;20728;-77
2023/09/27 02:22:18;;;;;;;13.15;2.85;;;14.60;99.90;;;;;;4860763;29;20583;-77
2023/09/27 02:24:44;;;;;;;11.50;3.08;;;14.60;99.90;;;;;;4849207;29;20040;-77
2023/09/27 02:27:10;;;;;;;10.70;2.72;;;14.60;99.90;;;;;;4849413;29;20093;-77
2023/09/27 02:29:37;;;;;;;8.95;2.72;;;14.60;99.90;;;;;;4849020;29;20169;-78
2023/09/27 02:32:03;;;;;;;15.20;3.75;;;14.60;99.90;;;;;;4849749;29;20040;-78
2023/09/27 02:34:29;;;;;;;14.20;3.00;;;14.60;99.90;;;;;;4849933;29;20034;-78
2023/09/27 02:36:54;;;;;;;8.88;2.80;;;14.60;99.90;;;;;;4853497;29;20493;-78
2023/09/27 02:39:20;;;;;;;13.88;2.97;;;14.60;99.90;;;;;;4867050;29;20052;-77
2023/09/27 02:41:45;;;;;;;13.13;3.17;;;14.60;99.90;;;;;;4866638;29;20047;-77
2023/09/27 02:44:11;;;;;;;11.95;2.75;;;14.60;99.90;;;;;;4868728;29;20045;-77
2023/09/27 02:46:39;;;;;;;12.32;2.88;;;14.60;99.90;;;;;;4866801;29;20428;-77
2023/09/27 02:49:05;;;;;;;6.15;2.58;;;14.60;99.90;;;;;;4864643;29;20132;-77
2023/09/27 02:51:32;;;;;;;10.68;2.33;;;14.60;99.90;;;;;;4847922;29;20128;-78
2023/09/27 02:53:57;;;;;;;7.13;2.40;;;14.60;99.90;;;;;;4862908;29;20505;-78
2023/09/27 02:56:23;;;;;;;10.35;2.40;;;14.70;99.90;;;;;;4853040;29;20029;-77
2023/09/27 02:58:49;;;;;;;7.88;2.30;;;14.70;99.90;;;;;;4866749;29;20544;-78
2023/09/27 03:01:14;;;;;;;12.57;2.92;;;14.70;99.90;;;;;;4868143;29;20137;-77
2023/09/27 03:03:40;;;;;;;13.73;3.00;;;14.70;99.90;;;;;;4868117;29;20092;-78
2023/09/27 03:06:15;;;;;;;11.25;2.90;;;14.70;99.90;;;;;;4868152;29;20148;-77
2023/09/27 03:08:43;;;;;;;8.90;2.53;;;14.70;99.90;;;;;;4867652;29;20033;-77
2023/09/27 03:11:12;;;;;;;11.63;2.80;;;14.70;99.90;;;;;;4868152;29;20021;-78
2023/09/27 03:13:39;;;;;;;12.75;4.20;;;14.60;99.90;;;;;;4866423;29;20600;-78
2023/09/27 03:16:05;;;;;;;13.20;2.65;;;14.70;99.90;;;;;;4857467;29;20519;-77
2023/09/27 03:18:31;;;;;;;14.30;3.95;;;14.70;99.90;;;;;;4846370;29;20052;-77
2023/09/27 03:20:58;;;;;;;15.88;4.53;;;14.80;99.90;;;;;;4846405;29;20052;-78
2023/09/27 03:23:28;;;;;;;15.68;4.10;;;14.70;99.90;;;;;;4846429;29;20183;-78
2023/09/27 03:25:56;;;;;;;18.42;4.00;;;14.70;99.90;;;;;;4846905;29;20045;-77
2023/09/27 03:28:23;;;;;;;12.40;3.90;;;14.80;99.90;;;;;;4863357;29;20044;-78
2023/09/27 03:30:48;;;;;;;17.60;4.35;;;14.80;99.90;;;;;;4867577;29;20044;-77
2023/09/27 03:33:14;;;;;;;17.80;4.32;;;14.80;99.90;;;;;;4857271;29;20600;-77
2023/09/27 03:35:41;;;;;;;15.23;3.85;;;14.80;99.90;;;;;;4849184;29;20037;-77
2023/09/27 03:38:07;;;;;;;13.10;4.05;;;14.70;99.90;;;;;;4848213;29;20061;-77
2023/09/27 03:40:33;;;;;;;14.38;3.33;;;14.70;99.90;;;;;;4848970;29;20037;-78
2023/09/27 03:42:58;;;;;;;16.27;3.65;;;14.60;99.90;;;;;;4848057;29;20093;-77
2023/09/27 03:45:25;;;;;;;15.48;4.00;;;14.50;99.90;;;;;;4858748;29;20052;-76
2023/09/27 03:47:50;;;;;;;16.30;3.63;;;14.50;99.90;;;;;;4867428;29;20033;-77
2023/09/27 03:50:16;;;;;;;17.00;4.32;;;14.50;99.90;;;;;;4858069;29;20172;-78
2023/09/27 03:52:42;;;;;;;15.80;3.78;;;14.40;99.90;;;;;;4857406;29;20062;-77
2023/09/27 03:55:08;;;;;;;19.23;4.47;;;14.40;99.90;;;;;;4865170;29;20069;-78
2023/09/27 03:57:34;;;;;;;14.65;4.15;;;14.50;99.90;;;;;;4864625;29;20037;-77
2023/09/27 04:00:00;;;;;;;11.70;4.28;;;14.50;99.90;;;;;;4865537;29;20530;-77
2023/09/27 04:02:26;;;;;;;8.25;3.38;;;14.60;99.90;;;;;;4865824;29;20085;-78
2023/09/27 04:04:51;;;;;;;17.52;4.28;;;14.60;99.90;;;;;;4859507;29;20045;-77
2023/09/27 04:07:18;;;;;;;11.50;3.30;;;14.60;99.90;;;;;;4857976;29;20053;-78
2023/09/27 04:09:45;;;;;;;12.18;3.63;;;14.60;99.90;;;;;;4866083;29;20033;-77
2023/09/27 04:12:11;;;;;;;12.43;2.95;;;14.70;99.90;;;;;;4866624;29;20089;-77
2023/09/27 04:14:37;;;;;;;15.68;3.33;;;14.70;99.90;;;;;;4866520;29;20471;-77
2023/09/27 04:17:03;;;;;;;9.68;3.28;;;14.70;99.90;;;;;;4882217;29;20376;-78
2023/09/27 04:19:30;;;;;;;10.75;3.05;;;14.70;99.90;;;;;;4869714;29;20136;-77
2023/09/27 04:21:56;;;;;;;10.52;3.70;;;14.70;99.90;;;;;;4864925;29;20460;-77
2023/09/27 04:24:22;;;;;;;12.60;3.03;;;14.70;99.90;;;;;;4868833;29;20037;-77
2023/09/27 04:26:48;;;;;;;12.43;3.90;;;14.70;99.90;;;;;;4868942;29;20077;-78
2023/09/27 04:29:14;;;;;;;10.95;3.58;;;14.80;99.90;;;;;;4867751;29;20052;-78
2023/09/27 04:31:40;;;;;;;13.43;3.58;;;14.80;99.90;;;;;;4868415;29;20494;-78
2023/09/27 04:34:05;;;;;;;11.48;3.28;;;14.80;99.90;;;;;;4867512;29;20181;-78
2023/09/27 04:36:31;;;;;;;12.30;3.63;;;14.80;99.90;;;;;;4864166;29;20677;-78
2023/09/27 04:38:57;;;;;;;15.27;3.50;;;14.70;99.90;;;;;;4850591;29;20061;-78
2023/09/27 04:41:22;;;;;;;9.90;3.30;;;14.80;99.90;;;;;;4874495;29;20041;-78
2023/09/27 04:43:48;;;;;;;10.70;3.67;;;14.80;99.90;;;;;;4867141;29;20029;-78
2023/09/27 04:46:16;;;;;;;18.92;4.60;;;14.80;99.90;;;;;;4868689;29;20138;-78
2023/09/27 04:48:42;;;;;;;13.00;4.05;;;14.80;99.90;;;;;;4867052;29;20352;-78
2023/09/27 04:51:09;;;;;;;16.00;3.88;;;14.80;99.90;;;;;;4856703;29;20033;-77
2023/09/27 04:53:37;;;;;;;11.93;3.88;;;14.70;99.90;;;;;;4849045;29;20077;-77
2023/09/27 04:56:07;;;;;;;17.60;4.32;;;14.80;99.90;;;;;;4863490;29;20610;-78
2023/09/27 04:58:33;;;;;;;14.25;4.88;;;14.80;99.90;;;;;;4868076;29;20048;-78
2023/09/27 05:00:58;;;;;;;16.02;4.07;;;14.80;99.90;;;;;;4868953;29;20351;-78
2023/09/27 05:03:24;;;;;;;16.52;4.75;;;14.80;99.90;;;;;;4865960;29;20029;-78
2023/09/27 05:05:50;;;;;;;12.85;4.57;;;14.80;99.90;;;;;;4864337;29;20210;-78
2023/09/27 05:08:16;;;;;;;16.30;4.78;;;14.80;99.90;;;;;;4877707;29;20120;-77
2023/09/27 05:10:41;;;;;;;13.88;4.80;;;14.80;99.90;;;;;;4867010;29;20518;-78
2023/09/27 05:13:07;;;;;;;16.02;4.82;;;14.80;99.90;;;;;;4868544;29;20044;-78
2023/09/27 05:15:33;;;;;;;17.13;4.85;;;14.80;99.90;;;;;;4867913;29;20475;-78
2023/09/27 05:17:59;;;;;;;20.52;5.20;;;14.80;99.90;;;;;;4867716;29;20286;-78
2023/09/27 05:20:24;;;;;;;21.38;4.93;;;14.80;99.90;;;;;;4852937;29;20053;-78
2023/09/27 05:22:51;;;;;;;13.38;4.45;;;14.80;99.90;;;;;;4850165;29;20084;-77
2023/09/27 05:25:17;;;;;;;18.00;5.13;;;14.80;99.90;;;;;;4865855;29;20053;-77
2023/09/27 05:27:42;;;;;;;20.52;6.60;;;14.80;99.90;;;;;;4869141;29;20135;-77
2023/09/27 05:30:09;;;;;;;22.75;5.07;;;14.80;99.90;;;;;;4869246;29;20488;-78
2023/09/27 05:32:34;;;;;;;15.75;5.57;;;14.90;99.90;;;;;;4866976;29;20035;-78
2023/09/27 05:35:01;;;;;;;19.63;5.03;;;14.90;99.90;;;;;;4867447;29;20136;-78
2023/09/27 05:37:28;;;;;;;15.93;5.03;;;15.00;99.90;;;;;;4865603;29;20061;-77
2023/09/27 05:39:54;;;;;;;16.98;4.82;;;15.00;99.90;;;;;;4852384;29;20038;-78
2023/09/27 05:42:20;;;;;;;17.45;4.60;;;15.00;99.90;;;;;;4854354;29;20369;-78
2023/09/27 05:44:46;;;;;;;21.85;4.90;;;14.90;99.90;;;;;;4865895;29;20044;-78
2023/09/27 05:47:11;;;;;;;19.35;4.80;;;14.80;99.90;;;;;;4870882;29;20045;-77
2023/09/27 05:49:38;;;;;;;17.63;4.78;;;14.80;99.90;;;;;;4859059;29;20037;-78
2023/09/27 05:52:03;;;;;;;18.40;4.60;;;14.70;99.90;;;;;;4852842;29;20088;-78
2023/09/27 05:54:29;;;;;;;16.25;4.35;;;14.70;99.90;;;;;;4852664;29;20033;-78
2023/09/27 05:56:55;;;;;;;14.23;4.25;;;14.70;99.90;;;;;;4853001;29;20030;-78
2023/09/27 05:59:24;;;;;;;11.55;4.57;;;14.70;99.90;;;;;;4868022;29;20029;-78
2023/09/27 06:01:51;;;;;;;18.08;4.75;;;14.60;99.90;;;;;;4861970;29;20064;-78
2023/09/27 06:04:17;;;;;;;16.00;5.68;;;14.60;99.90;;;;;;4853147;29;20476;-79
2023/09/27 06:06:43;;;;;;;17.42;4.93;;;14.60;99.90;;;;;;4866563;29;20219;-78
2023/09/27 06:09:09;;;;;;;16.85;4.30;;;14.60;99.90;;;;;;4871226;29;20076;-79
2023/09/27 06:11:35;;;;;;;22.98;5.10;;;14.60;99.90;;;;;;4871655;29;20123;-78
2023/09/27 06:14:01;;;;;;;15.02;5.10;;;14.70;99.90;;;;;;4872177;29;20105;-78
2023/09/27 06:16:27;;;;;;;14.52;4.80;;;14.80;99.90;;;;;;4886595;29;20094;-78
2023/09/27 06:18:53;;;;;;;17.38;5.55;;;14.90;99.90;;;;;;4878329;29;20231;-77
2023/09/27 06:21:19;;;;;;;20.38;6.10;;;14.90;99.90;;;;;;4876082;29;20499;-78
2023/09/27 06:23:44;;;;;;;18.48;6.30;;;15.00;99.90;;;;;;4864111;29;20089;-79
2023/09/27 06:26:10;;;;;;;21.52;6.88;;;15.00;99.90;;;;;;4855849;29;20037;-80
2023/09/27 06:28:39;;;;;;;25.33;7.35;;;15.00;99.90;;;;;;4872378;29;20036;-78
2023/09/27 06:31:08;;;;;;;37.35;8.68;;;15.00;99.90;;;;;;4867198;29;20039;-77
2023/09/27 06:33:38;;;;;;;21.85;6.95;;;15.10;99.90;;;;;;4867262;29;20052;-77
2023/09/27 06:36:05;;;;;;;22.77;6.73;;;15.20;99.90;;;;;;4869503;29;20096;-78
2023/09/27 06:38:31;;;;;;;20.45;7.32;;;15.40;99.90;;;;;;4863216;29;20436;-79
2023/09/27 06:40:57;;;;;;;25.80;7.05;;;15.50;99.90;;;;;;4867646;29;20084;-78
2023/09/27 06:43:24;;;;;;;19.30;5.97;;;15.60;99.90;;;;;;4868878;29;20084;-78
2023/09/27 06:45:49;;;;;;;19.30;6.65;;;15.60;99.90;;;;;;4877944;29;20040;-78
2023/09/27 06:48:18;;;;;;;21.08;6.28;;;15.70;99.90;;;;;;4878660;29;20048;-79
2023/09/27 06:50:43;;;;;;;20.67;6.30;;;15.90;99.90;;;;;;4877418;29;20033;-77
2023/09/27 06:53:09;;;;;;;21.42;6.65;;;16.00;99.90;;;;;;4868989;29;20029;-79
2023/09/27 06:55:35;;;;;;;23.48;6.57;;;16.20;99.90;;;;;;4869037;29;20049;-79
2023/09/27 06:58:00;;;;;;;24.70;7.10;;;16.30;99.90;;;;;;4867605;29;20036;-78
2023/09/27 07:00:26;;;;;;;19.30;6.30;;;16.40;99.90;;;;;;4867397;29;20140;-78
2023/09/27 07:02:52;;;;;;;16.30;5.53;;;16.60;99.90;;;;;;4867767;29;20029;-79
2023/09/27 07:05:21;;;;;;;23.13;5.38;;;16.70;99.90;;;;;;4865093;29;20071;-78
2023/09/27 07:07:50;;;;;;;19.70;4.88;;;16.90;99.90;;;;;;4863747;29;20113;-79
2023/09/27 07:10:16;;;;;;;18.15;4.63;;;17.10;99.90;;;;;;4864721;29;20038;-79
2023/09/27 07:12:42;;;;;;;21.17;4.95;;;17.20;99.90;;;;;;4866303;29;20081;-79
2023/09/27 07:15:10;;;;;;;15.90;4.28;;;17.30;99.90;;;;;;4874067;29;20051;-79
2023/09/27 07:17:37;;;;;;;15.40;4.10;;;17.40;99.90;;;;;;4874972;29;20042;-79
2023/09/27 07:20:12;;;;;;;13.07;3.95;;;17.50;99.90;;;;;;4874992;29;20041;-79
2023/09/27 07:22:38;;;;;;;17.48;3.92;;;17.50;99.90;;;;;;4877210;29;20040;-80
2023/09/27 07:25:12;;;;;;;21.85;4.00;;;17.60;99.90;;;;;;4879313;29;20052;-79
2023/09/27 07:27:38;;;;;;;13.05;3.47;;;17.70;99.90;;;;;;4873442;29;20838;-79
2023/09/27 07:30:04;;;;;;;13.13;3.13;;;17.80;99.90;;;;;;4867707;29;20033;-79
2023/09/27 07:32:30;;;;;;;14.63;3.50;;;17.90;99.90;;;;;;4868825;29;20047;-79
2023/09/27 07:34:58;;;;;;;17.67;3.80;;;18.00;99.90;;;;;;4866661;29;20029;-79
2023/09/27 07:37:24;;;;;;;13.05;3.55;;;18.10;99.90;;;;;;4868275;29;20493;-78
2023/09/27 07:39:50;;;;;;;9.77;2.80;;;18.10;99.90;;;;;;4866765;29;20037;-79
2023/09/27 07:42:15;;;;;;;14.43;3.50;;;18.20;99.90;;;;;;4864406;29;20033;-79
2023/09/27 07:44:42;;;;;;;11.90;3.13;;;18.20;99.90;;;;;;4848924;29;20029;-78
2023/09/27 07:47:08;;;;;;;11.40;3.65;;;18.30;99.90;;;;;;4852883;29;20044;-79
2023/09/27 07:49:34;;;;;;;16.52;4.05;;;18.30;99.90;;;;;;4849598;29;20033;-78
2023/09/27 07:51:59;;;;;;;15.30;4.40;;;18.30;99.90;;;;;;4848641;29;20104;-79
2023/09/27 07:54:25;;;;;;;16.85;4.15;;;18.30;99.90;;;;;;4862305;29;20044;-79
2023/09/27 07:56:50;;;;;;;16.00;3.85;;;18.30;99.90;;;;;;4874364;29;20132;-79
2023/09/27 07:59:16;;;;;;;13.23;3.97;;;18.30;99.90;;;;;;4874855;29;20057;-79
2023/09/27 08:01:42;;;;;;;15.95;4.30;;;18.40;99.90;;;;;;4878136;29;20466;-78
2023/09/27 08:04:12;;;;;;;16.80;4.25;;;18.40;99.90;;;;;;4873144;29;20065;-79
2023/09/27 08:06:38;;;;;;;17.05;4.70;;;18.40;99.90;;;;;;4867366;29;20089;-79
2023/09/27 08:09:06;;;;;;;9.88;3.50;;;18.50;99.90;;;;;;4868516;29;20140;-79
2023/09/27 08:11:31;;;;;;;15.70;3.47;;;18.60;99.90;;;;;;4869339;29;20133;-79
2023/09/27 08:13:57;;;;;;;17.83;3.95;;;18.60;99.90;;;;;;4869442;29;20142;-79
2023/09/27 08:16:23;;;;;;;16.50;3.58;;;18.70;99.90;;;;;;4867184;29;20056;-79
2023/09/27 08:18:49;;;;;;;15.45;3.80;;;18.70;99.90;;;;;;4867693;29;20080;-79
2023/09/27 08:21:14;;;;;;;16.85;4.53;;;18.70;99.90;;;;;;4870664;29;20525;-78
2023/09/27 08:23:41;;;;;;;17.40;3.58;;;18.60;99.90;;;;;;4869110;29;20120;-78
2023/09/27 08:26:12;;;;;;;14.70;3.92;;;18.70;99.90;;;;;;4866387;29;20411;-79
2023/09/27 08:28:37;;;;;;;;;;;18.70;99.90;;;;;;4871488;29;20045;-79
2023/09/27 08:31:04;;;;;;;13.95;3.53;;;18.70;99.90;;;;;;4868745;29;20448;-79
2023/09/27 08:33:30;;;;;;;14.48;3.33;;;18.80;99.90;;;;;;4857654;29;20041;-79
2023/09/27 08:35:56;;;;;;;14.38;3.88;;;18.80;99.90;;;;;;4871274;29;20040;-79
2023/09/27 08:38:21;;;;;;;15.77;3.60;;;18.70;99.90;;;;;;4874002;29;20669;-79
2023/09/27 08:40:48;;;;;;;12.90;3.70;;;18.70;99.90;;;;;;4867430;29;20043;-79
2023/09/27 08:43:17;;;;;;;14.93;4.00;;;18.80;99.90;;;;;;4861906;29;20432;-79
2023/09/27 08:45:45;;;;;;;14.15;4.45;;;19.00;99.90;;;;;;4863695;29;20048;-79
2023/09/27 08:48:16;;;;;;;11.77;3.58;;;19.10;99.90;;;;;;4872609;29;20038;-78
2023/09/27 08:50:43;;;;;;;11.88;3.67;;;19.20;99.90;;;;;;4853247;29;20490;-79
2023/09/27 08:53:10;;;;;;;16.38;3.80;;;19.30;99.90;;;;;;4853878;29;20041;-78
2023/09/27 08:55:37;;;;;;;13.48;3.30;;;19.60;99.90;;;;;;4858532;29;20040;-78
2023/09/27 08:58:03;;;;;;;11.88;3.42;;;19.90;99.90;;;;;;4866992;29;20036;-79
2023/09/27 09:00:32;;;;;;;12.85;3.53;;;20.20;99.90;;;;;;4856868;29;20052;-79
2023/09/27 09:03:00;;;;;;;11.93;3.28;;;20.70;99.90;;;;;;4860514;29;20148;-79
2023/09/27 09:05:27;;;;;;;12.02;2.63;;;21.20;99.90;;;;;;4852652;29;20038;-79
2023/09/27 09:07:55;;;;;;;13.48;2.58;;;21.60;99.90;;;;;;4855922;29;20033;-79
2023/09/27 09:10:22;;;;;;;13.18;2.70;;;21.70;99.90;;;;;;4857633;29;20220;-80
2023/09/27 09:12:49;;;;;;;8.98;2.78;;;22.00;99.90;;;;;;4859409;29;20086;-79
2023/09/27 09:15:40;;;;;;;9.90;2.67;;;22.20;99.90;;;;;;4854531;29;20037;-79
2023/09/27 09:18:14;;;;;;;;;;;22.20;99.90;;;;;;4853899;29;20055;-80
2023/09/27 09:20:54;;;;;;;9.27;2.58;;;22.10;99.90;;;;;;4857268;29;19954;-78
2023/09/27 09:23:34;;;;;;;8.43;1.95;;;22.10;99.90;;;;;;4875866;29;20212;-78
2023/09/27 09:26:03;;;;;;;5.82;2.00;;;21.90;99.90;;;;;;4860580;29;20098;-79
2023/09/27 09:28:29;;;;;;;9.35;1.83;;;22.10;99.90;;;;;;4862365;29;20041;-79
2023/09/27 09:30:55;;;;;;;12.32;2.05;;;22.80;99.90;;;;;;4868777;29;20543;-80
2023/09/27 09:33:24;;;;;;;6.47;1.92;;;23.60;99.90;;;;;;4859310;29;20539;-79
2023/09/27 09:35:51;;;;;;;8.30;1.90;;;23.50;99.90;;;;;;4860464;29;20029;-80
2023/09/27 09:38:43;;;;;;;7.63;2.03;;;23.20;99.90;;;;;;4864728;29;20030;-79
2023/09/27 09:41:10;;;;;;;4.43;1.60;;;22.50;99.90;;;;;;4851102;29;20041;-80
2023/09/27 09:43:37;;;;;;;5.68;1.80;;;21.90;99.90;;;;;;4853598;29;20025;-81
2023/09/27 09:46:08;;;;;;;7.75;2.33;;;21.40;99.90;;;;;;4853389;29;20475;-81
2023/09/27 09:48:35;;;;;;;6.18;1.90;;;20.80;99.90;;;;;;4862448;29;20655;-80
2023/09/27 09:51:06;;;;;;;7.22;2.22;;;20.40;99.90;;;;;;4862714;29;20033;-80
2023/09/27 09:53:42;;;;;;;8.27;2.30;;;20.10;99.90;;;;;;4872100;29;20039;-79
2023/09/27 09:56:10;;;;;;;8.55;2.00;;;19.80;99.90;;;;;;4870966;29;20033;-79
2023/09/27 09:58:46;;;;;;;11.75;2.28;;;19.70;99.90;;;;;;4871934;29;20033;-80
2023/09/27 10:01:18;;;;;;;5.82;2.25;;;19.80;99.90;;;;;;4872365;29;20029;-80
2023/09/27 10:03:47;;;;;;;6.63;1.90;;;20.30;99.90;;;;;;4870842;29;20081;-80
2023/09/27 10:06:17;;;;;;;6.30;2.00;;;20.90;99.90;;;;;;4869680;29;20041;-80
2023/09/27 10:08:45;;;;;;;5.43;1.70;;;21.60;99.90;;;;;;4872072;29;20029;-80
2023/09/27 10:11:11;;;;;;;8.82;2.00;;;22.10;99.90;;;;;;4866378;29;20037;-80
2023/09/27 10:13:39;;;;;;;8.57;1.92;;;22.70;99.90;;;;;;4870502;29;20105;-81
2023/09/27 10:16:07;;;;;;;10.35;2.17;;;24.60;99.90;;;;;;4870334;29;20403;-82
2023/09/27 10:18:36;;;;;;;7.88;1.70;;;27.20;99.90;;;;;;4870518;29;20100;-82
2023/09/27 10:21:05;;;;;;;4.15;1.50;;;29.10;99.90;;;;;;4873358;29;20040;-82
2023/09/27 10:23:45;;;;;;;7.38;1.52;;;29.70;98.80;;;;;;4866138;29;20045;-80
2023/09/27 10:26:27;;;;;;;5.07;1.70;;;31.30;97.30;;;;;;4852537;29;20095;-80
2023/09/27 10:29:07;;;;;;;9.80;2.17;;;33.00;89.50;;;;;;4853321;29;20034;-82
2023/09/27 10:31:57;;;;;;;7.53;1.45;;;32.30;87.90;;;;;;4876406;29;20040;-81
2023/09/27 10:34:28;;;;;;;5.65;1.70;;;32.50;85.50;;;;;;4867531;29;20061;-80
2023/09/27 10:36:55;;;;;;;5.85;1.90;;;32.70;87.30;;;;;;4878417;29;20063;-80
2023/09/27 10:39:21;;;;;;;6.03;2.15;;;33.70;82.40;;;;;;4868250;29;20092;-80
2023/09/27 10:41:50;;;;;;;7.50;1.75;;;33.80;74.90;;;;;;4871468;29;20132;-80
2023/09/27 10:44:29;;;;;;;6.55;1.88;;;32.60;76.70;;;;;;4879938;29;20132;-81
2023/09/27 10:46:56;;;;;;;7.82;1.60;;;31.40;80.70;;;;;;4869942;29;20121;-82
2023/09/27 10:49:24;;;;;;;4.53;1.75;;;30.20;86.00;;;;;;4867646;29;20033;-79
2023/09/27 10:51:50;;;;;;;5.38;1.48;;;29.10;91.60;;;;;;4869995;29;20036;-79
2023/09/27 10:54:23;;;;;;;5.13;1.88;;;28.00;96.60;;;;;;4869688;29;20475;-79
2023/09/27 10:56:53;;;;;;;5.90;2.17;;;26.70;99.90;;;;;;4869613;29;20033;-81
2023/09/27 10:59:23;;;;;;;5.35;1.88;;;25.80;99.90;;;;;;4864502;29;20412;-79
2023/09/27 11:01:48;;;;;;;4.55;1.58;;;25.60;99.90;;;;;;4878236;29;20538;-80
2023/09/27 11:04:14;;;;;;;7.20;2.65;;;26.70;99.90;;;;;;4870492;29;20037;-80
2023/09/27 11:06:45;;;;;;;5.70;2.03;;;27.80;99.90;;;;;;4875084;29;20036;-79
2023/09/27 11:09:16;;;;;;;8.27;2.20;;;28.80;99.90;;;;;;4878760;29;20119;-81
2023/09/27 11:11:47;;;;;;;6.63;2.00;;;29.50;98.40;;;;;;4873921;29;20049;-80
2023/09/27 11:14:25;;;;;;;5.82;2.00;;;30.80;96.70;;;;;;4876829;29;20029;-81
2023/09/27 11:16:51;;;;;;;5.85;1.90;;;31.20;95.80;;;;;;4875927;29;20040;-82
2023/09/27 11:19:26;;;;;;;6.45;1.70;;;31.50;93.50;;;;;;4876138;29;20061;-81
2023/09/27 11:21:52;;;;;;;6.28;1.67;;;31.10;87.80;;;;;;4865052;29;20033;-81
2023/09/27 11:24:18;;;;;;;4.88;1.65;;;30.00;92.60;;;;;;4866442;29;20054;-82
2023/09/27 11:26:44;;;;;;;6.43;1.75;;;29.70;94.00;;;;;;4860827;29;20104;-81
2023/09/27 11:29:09;;;;;;;5.40;1.38;;;29.20;93.80;;;;;;4880828;29;20034;-80
2023/09/27 11:31:37;;;;;;;6.57;1.65;;;29.30;96.60;;;;;;4878039;29;20034;-81
2023/09/27 11:34:13;;;;;;;4.82;1.58;;;29.50;94.80;;;;;;4868320;29;20040;-81
2023/09/27 11:36:43;;;;;;;6.68;1.90;;;29.40;96.10;;;;;;4867590;29;20030;-80
2023/09/27 11:39:10;;;;;;;4.07;1.58;;;28.70;94.30;;;;;;4870468;29;20061;-79
2023/09/27 11:41:36;;;;;;;7.18;1.80;;;27.90;95.90;;;;;;4872820;29;20371;-79
2023/09/27 11:44:18;;;;;;;4.90;1.63;;;27.00;99.00;;;;;;4876074;29;20044;-81
2023/09/27 11:46:44;;;;;;;5.75;2.03;;;26.70;99.50;;;;;;4875876;29;20040;-80
2023/09/27 11:49:10;;;;;;;5.80;1.70;;;26.40;99.90;;;;;;4872759;29;20608;-78
2023/09/27 11:51:36;;;;;;;12.48;4.80;;;26.30;99.90;;;;;;4871046;29;20123;-79
2023/09/27 11:54:04;;;;;;;6.15;2.20;;;26.00;99.90;;;;;;4874294;29;20256;-80
2023/09/27 11:56:30;;;;;;;7.57;2.40;;;25.50;99.90;;;;;;4873120;29;20033;-79
2023/09/27 11:58:56;;;;;;;11.43;3.65;;;25.30;99.90;;;;;;4882516;29;20028;-81
2023/09/27 12:01:21;;;;;;;6.45;2.83;;;25.00;99.90;;;;;;4873448;29;20631;-80
2023/09/27 12:03:53;;;;;;;6.72;2.45;;;24.80;99.90;;;;;;4870005;29;20135;-80
2023/09/27 12:06:19;;;;;;;9.55;3.35;;;25.30;99.90;;;;;;4868316;29;20045;-78
2023/09/27 12:08:45;;;;;;;8.68;2.70;;;25.60;99.90;;;;;;4854568;29;20048;-77
2023/09/27 12:11:11;;;;;;;5.47;1.92;;;25.60;99.90;;;;;;4877440;29;20537;-79
2023/09/27 12:13:37;;;;;;;7.53;2.28;;;25.50;99.90;;;;;;4855976;29;20142;-79
2023/09/27 12:16:03;;;;;;;6.50;2.38;;;25.50;99.90;;;;;;4880874;29;20047;-79
2023/09/27 12:18:29;;;;;;;9.90;2.08;;;25.20;99.90;;;;;;4881230;29;20052;-77
2023/09/27 12:20:55;;;;;;;6.82;2.22;;;24.70;99.90;;;;;;4867014;29;20068;-76
2023/09/27 12:23:21;;;;;;;5.40;2.00;;;24.40;99.90;;;;;;4862689;29;20036;-77
2023/09/27 12:25:48;;;;;;;6.18;1.63;;;23.70;99.90;;;;;;4872387;29;20135;-75
2023/09/27 12:28:16;;;;;;;14.20;2.50;;;23.20;99.90;;;;;;4872200;29;20136;-79
2023/09/27 12:30:42;;;;;;;4.80;1.92;;;22.70;99.90;;;;;;4875578;29;20436;-77
2023/09/27 12:33:08;;;;;;;5.63;1.92;;;22.50;99.90;;;;;;4871925;29;20039;-79
2023/09/27 12:35:33;;;;;;;5.97;2.05;;;22.20;99.90;;;;;;4871376;29;20123;-78
2023/09/27 12:38:06;;;;;;;8.10;1.67;;;22.00;99.90;;;;;;4870577;29;20104;-78
2023/09/27 12:40:35;;;;;;;5.65;1.98;;;21.80;99.90;;;;;;4866123;29;20455;-77